Time;durP1;ratioP1;P1;durP2;ratioP2;P2;SDS_P1;SDS_P2;PMS_P1;PMS_P2;Temp;Humidity;BMP_temperature;BMP_pressure;BME280_temperature;BME280_humidity;BME280_pressure;Samples;Min_cycle;Max_cycle;Signal;HPM_P1;HPM_P2
2023/01/07 00:01:02;;;;;;;;;;;;;;;;;;4987201;28;19940;-70
2023/01/07 00:03:28;;;;;;;;;;;;;;;;;;4993965;28;19928;-69
2023/01/07 00:05:54;;;;;;;;;;;;;;;;;;4996216;28;19918;-70
2023/01/07 00:08:20;;;;;;;;;;;;;;;;;;5001012;28;20028;-69
2023/01/07 00:10:46;;;;;;;;;;;;;;;;;;4989766;28;19921;-70
2023/01/07 00:13:11;;;;;;;;;;;;;;;;;;4999973;28;19983;-68
2023/01/07 00:15:37;;;;;;;;;;;;;;;;;;4980078;28;19975;-70
2023/01/07 00:18:03;;;;;;;;;;;;;;;;;;5006013;28;20680;-68
2023/01/07 00:20:29;;;;;;;;;;;;;;;;;;4996826;28;20948;-68
2023/01/07 00:22:55;;;;;;;;;;;;;;;;;;5000583;28;19925;-67
2023/01/07 00:25:21;;;;;;;;;;;;;;;;;;4998658;28;20386;-68
2023/01/07 00:27:47;;;;;;;;;;;;;;;;;;4996638;28;19932;-69
2023/01/07 00:30:12;;;;;;;;;;;;;;;;;;4991318;28;19929;-70
2023/01/07 00:35:23;;;;;;;;;;;;;;;;;;4998134;28;19928;-68
2023/01/07 00:37:49;;;;;;;;;;;;;;;;;;4980102;28;19925;-67
2023/01/07 00:40:15;;;;;;;;;;;;;;;;;;4999295;28;19929;-67
2023/01/07 00:42:53;;;;;;;;;;;;;;;;;;5002707;28;19964;-71
2023/01/07 00:45:19;;;;;;;;;;;;;;;;;;4988308;28;20499;-68
2023/01/07 00:47:45;;;;;;;;;;;;;;;;;;4994176;28;19925;-69
2023/01/07 00:50:10;;;;;;;;;;;;;;;;;;4992109;28;20010;-68
2023/01/07 00:52:36;;;;;;;;;;;;;;;;;;5002499;28;20382;-69
2023/01/07 00:55:02;;;;;;;;;;;;;;;;;;4998558;28;20015;-69
2023/01/07 00:57:28;;;;;;;;;;;;;;;;;;4998893;28;19932;-69
2023/01/07 00:59:54;;;;;;;;;;;;;;;;;;4991447;28;19916;-69
2023/01/07 01:02:20;;;;;;;;;;;;;;;;;;5002566;28;19933;-68
2023/01/07 01:04:45;;;;;;;;;;;;;;;;;;5000561;28;19924;-69
2023/01/07 01:07:11;;;;;;;;;;;;;;;;;;5001225;28;20327;-70
2023/01/07 01:09:37;;;;;;;;;;;;;;;;;;5000540;28;19929;-69
2023/01/07 01:12:03;;;;;;;;;;;;;;;;;;4996599;28;19932;-69
2023/01/07 01:14:29;;;;;;;;;;;;;;;;;;4996249;28;20391;-70
2023/01/07 01:16:55;;;;;;;;;;;;;;;;;;4990694;28;19925;-69
2023/01/07 01:19:21;;;;;;;;;;;;;;;;;;4998775;28;20016;-69
2023/01/07 01:21:46;;;;;;;;;;;;;;;;;;4992625;28;19932;-68
2023/01/07 01:24:12;;;;;;;;;;;;;;;;;;4995371;28;19932;-69
2023/01/07 01:26:38;;;;;;;;;;;;;;;;;;4992801;28;20023;-69
2023/01/07 01:29:04;;;;;;;;;;;;;;;;;;4993215;28;20409;-68
2023/01/07 01:31:30;;;;;;;;;;;;;;;;;;4991696;28;20024;-68
2023/01/07 01:33:56;;;;;;;;;;;;;;;;;;4991521;28;21378;-67
2023/01/07 01:36:22;;;;;;;;;;;;;;;;;;5001465;28;20294;-69
2023/01/07 01:38:48;;;;;;;;;;;;;;;;;;4999178;28;19925;-70
2023/01/07 01:41:15;;;;;;;;;;;;;;;;;;4993708;28;20085;-67
2023/01/07 01:43:41;;;;;;;;;;;;;;;;;;4992708;28;19926;-70
2023/01/07 01:46:07;;;;;;;;;;;;;;;;;;4988730;28;19925;-69
2023/01/07 01:48:32;;;;;;;;;;;;;;;;;;4996931;28;19929;-68
2023/01/07 01:50:58;;;;;;;;;;;;;;;;;;5002686;28;20610;-68
2023/01/07 01:53:24;;;;;;;;;;;;;;;;;;4997039;28;21142;-68
2023/01/07 01:55:50;;;;;;;;;;;;;;;;;;4997835;28;19991;-69
2023/01/07 01:58:16;;;;;;;;;;;;;;;;;;5000651;28;19927;-68
2023/01/07 02:00:42;;;;;;;;;;;;;;;;;;4994267;28;19926;-68
2023/01/07 02:03:08;;;;;;;;;;;;;;;;;;4999353;28;20040;-67
2023/01/07 02:05:33;;;;;;;;;;;;;;;;;;4998620;28;19925;-67
2023/01/07 02:07:59;;;;;;;;;;;;;;;;;;5002002;28;20764;-69
2023/01/07 02:10:25;;;;;;;;;;;;;;;;;;5017449;28;19925;-68
2023/01/07 02:12:51;;;;;;;;;;;;;;;;;;5012613;28;19924;-67
2023/01/07 02:15:17;;;;;;;;;;;;;;;;;;5015758;28;19940;-68
2023/01/07 02:17:43;;;;;;;;;;;;;;;;;;5012585;28;19925;-68
2023/01/07 02:20:09;;;;;;;;;;;;;;;;;;5011225;28;19925;-68
2023/01/07 02:22:35;;;;;;;;;;;;;;;;;;5009420;28;19925;-69
2023/01/07 02:25:01;;;;;;;;;;;;;;;;;;5016883;28;20772;-68
2023/01/07 02:27:26;;;;;;;;;;;;;;;;;;5006574;28;20275;-68
2023/01/07 02:29:53;;;;;;;;;;;;;;;;;;5015806;28;20059;-68
2023/01/07 02:32:19;;;;;;;;;;;;;;;;;;5015208;28;19925;-69
2023/01/07 02:34:45;;;;;;;;;;;;;;;;;;5017082;28;20421;-70
2023/01/07 02:37:10;;;;;;;;;;;;;;;;;;5013159;28;19929;-69
2023/01/07 02:39:36;;;;;;;;;;;;;;;;;;5019473;28;19920;-69
2023/01/07 02:42:02;;;;;;;;;;;;;;;;;;5016954;28;20654;-68
2023/01/07 02:44:28;;;;;;;;;;;;;;;;;;5009681;28;19921;-69
2023/01/07 02:46:54;;;;;;;;;;;;;;;;;;5019237;28;19925;-68
2023/01/07 02:49:20;;;;;;;;;;;;;;;;;;5017160;28;19925;-67
2023/01/07 02:51:46;;;;;;;;;;;;;;;;;;5010270;28;19951;-68
2023/01/07 02:54:12;;;;;;;;;;;;;;;;;;5007549;28;19930;-69
2023/01/07 02:56:37;;;;;;;;;;;;;;;;;;5004579;28;19927;-69
2023/01/07 02:59:03;;;;;;;;;;;;;;;;;;5007351;28;19951;-68
2023/01/07 03:01:29;;;;;;;;;;;;;;;;;;5005191;28;20850;-68
2023/01/07 03:03:55;;;;;;;;;;;;;;;;;;5014188;28;19925;-69
2023/01/07 03:06:21;;;;;;;;;;;;;;;;;;5013382;28;19931;-69
2023/01/07 03:08:47;;;;;;;;;;;;;;;;;;5005608;28;19935;-69
2023/01/07 03:11:12;;;;;;;;;;;;;;;;;;5014173;28;20457;-67
2023/01/07 03:13:38;;;;;;;;;;;;;;;;;;4992362;28;19928;-68
2023/01/07 03:16:04;;;;;;;;;;;;;;;;;;5016132;28;19940;-67
2023/01/07 03:18:30;;;;;;;;;;;;;;;;;;4999151;28;19924;-67
2023/01/07 03:20:56;;;;;;;;;;;;;;;;;;5022691;28;19913;-68
2023/01/07 03:23:22;;;;;;;;;;;;;;;;;;5013652;28;20386;-68
2023/01/07 03:25:48;;;;;;;;;;;;;;;;;;4991764;28;20134;-68
2023/01/07 03:28:13;;;;;;;;;;;;;;;;;;5003872;28;19925;-69
2023/01/07 03:30:39;;;;;;;;;;;;;;;;;;5011383;28;20418;-68
2023/01/07 03:33:05;;;;;;;;;;;;;;;;;;5018701;28;19961;-69
2023/01/07 03:35:31;;;;;;;;;;;;;;;;;;5016500;28;19921;-67
2023/01/07 03:37:57;;;;;;;;;;;;;;;;;;5016249;28;19925;-68
2023/01/07 03:40:23;;;;;;;;;;;;;;;;;;5018190;28;19931;-67
2023/01/07 03:42:49;;;;;;;;;;;;;;;;;;5011733;28;19924;-68
2023/01/07 03:45:15;;;;;;;;;;;;;;;;;;5003342;28;19975;-69
2023/01/07 03:47:41;;;;;;;;;;;;;;;;;;5015338;28;19952;-67
2023/01/07 03:50:07;;;;;;;;;;;;;;;;;;5021560;28;19964;-69
2023/01/07 03:52:32;;;;;;;;;;;;;;;;;;5011960;28;19925;-69
2023/01/07 03:54:58;;;;;;;;;;;;;;;;;;4992437;28;19920;-69
2023/01/07 03:57:24;;;;;;;;;;;;;;;;;;5007287;28;20373;-68
2023/01/07 03:59:50;;;;;;;;;;;;;;;;;;5009699;28;19931;-69
2023/01/07 04:02:16;;;;;;;;;;;;;;;;;;4985097;28;19936;-69
2023/01/07 04:04:42;;;;;;;;;;;;;;;;;;5000874;28;19924;-69
2023/01/07 04:07:08;;;;;;;;;;;;;;;;;;5010023;28;19978;-68
2023/01/07 04:09:33;;;;;;;;;;;;;;;;;;5010252;28;20573;-69
2023/01/07 04:11:59;;;;;;;;;;;;;;;;;;5016568;28;19932;-69
2023/01/07 04:14:25;;;;;;;;;;;;;;;;;;5020088;28;19921;-69
2023/01/07 04:16:51;;;;;;;;;;;;;;;;;;5014444;28;19967;-69
2023/01/07 04:19:17;;;;;;;;;;;;;;;;;;5015822;28;20100;-69
2023/01/07 04:21:43;;;;;;;;;;;;;;;;;;5016878;28;20321;-68
2023/01/07 04:24:09;;;;;;;;;;;;;;;;;;5017432;28;20010;-67
2023/01/07 04:26:34;;;;;;;;;;;;;;;;;;5011210;28;19971;-68
2023/01/07 04:29:00;;;;;;;;;;;;;;;;;;5003270;28;19928;-66
2023/01/07 04:31:26;;;;;;;;;;;;;;;;;;5017183;28;20047;-69
2023/01/07 04:33:52;;;;;;;;;;;;;;;;;;5016105;28;19925;-67
2023/01/07 04:36:18;;;;;;;;;;;;;;;;;;5018449;28;19917;-67
2023/01/07 04:38:44;;;;;;;;;;;;;;;;;;5022051;28;19924;-68
2023/01/07 04:41:10;;;;;;;;;;;;;;;;;;5021024;28;19920;-69
2023/01/07 04:43:36;;;;;;;;;;;;;;;;;;5015291;28;19921;-68
2023/01/07 04:46:01;;;;;;;;;;;;;;;;;;5019108;28;19925;-69
2023/01/07 04:48:27;;;;;;;;;;;;;;;;;;5011766;28;19928;-68
2023/01/07 04:50:53;;;;;;;;;;;;;;;;;;5012585;28;19944;-68
2023/01/07 04:53:19;;;;;;;;;;;;;;;;;;5017772;28;20367;-66
2023/01/07 04:55:45;;;;;;;;;;;;;;;;;;5002308;28;20118;-69
2023/01/07 04:58:11;;;;;;;;;;;;;;;;;;5008424;28;19921;-69
2023/01/07 05:00:37;;;;;;;;;;;;;;;;;;5006265;28;19936;-67
2023/01/07 05:03:02;;;;;;;;;;;;;;;;;;5016543;28;20421;-68
2023/01/07 05:05:28;;;;;;;;;;;;;;;;;;5011999;28;19929;-68
2023/01/07 05:07:54;;;;;;;;;;;;;;;;;;4995556;28;20020;-69
2023/01/07 05:10:20;;;;;;;;;;;;;;;;;;4974058;28;19971;-69
2023/01/07 05:12:46;;;;;;;;;;;;;;;;;;4970853;28;19925;-69
2023/01/07 05:15:12;;;;;;;;;;;;;;;;;;4995849;28;19929;-67
2023/01/07 05:17:38;;;;;;;;;;;;;;;;;;5000177;28;19928;-69
2023/01/07 05:20:04;;;;;;;;;;;;;;;;;;4996943;28;19925;-70
2023/01/07 05:22:29;;;;;;;;;;;;;;;;;;4982847;28;19928;-69
2023/01/07 05:24:55;;;;;;;;;;;;;;;;;;4998530;28;19940;-67
2023/01/07 05:27:21;;;;;;;;;;;;;;;;;;4981945;28;20400;-69
2023/01/07 05:29:47;;;;;;;;;;;;;;;;;;4974136;28;19922;-68
2023/01/07 05:32:13;;;;;;;;;;;;;;;;;;4995822;28;23981;-66
2023/01/07 05:34:39;;;;;;;;;;;;;;;;;;4995347;28;19967;-68
2023/01/07 05:37:05;;;;;;;;;;;;;;;;;;5006378;28;19925;-68
2023/01/07 05:39:30;;;;;;;;;;;;;;;;;;4998345;28;19917;-67
2023/01/07 05:41:56;;;;;;;;;;;;;;;;;;4994248;28;19933;-68
2023/01/07 05:44:22;;;;;;;;;;;;;;;;;;5001026;28;20007;-69
2023/01/07 05:46:48;;;;;;;;;;;;;;;;;;4993895;28;19925;-67
2023/01/07 05:49:14;;;;;;;;;;;;;;;;;;5000550;28;20352;-69
2023/01/07 05:51:40;;;;;;;;;;;;;;;;;;4985214;28;19917;-68
2023/01/07 05:54:06;;;;;;;;;;;;;;;;;;5002235;28;20293;-68
2023/01/07 05:56:32;;;;;;;;;;;;;;;;;;4998087;28;20020;-68
2023/01/07 05:58:58;;;;;;;;;;;;;;;;;;4995740;28;20686;-69
2023/01/07 06:01:23;;;;;;;;;;;;;;;;;;4989749;28;19969;-68
2023/01/07 06:03:49;;;;;;;;;;;;;;;;;;4997650;28;20020;-67
2023/01/07 06:06:15;;;;;;;;;;;;;;;;;;4995847;28;20294;-67
2023/01/07 06:08:41;;;;;;;;;;;;;;;;;;5008338;28;19947;-69
2023/01/07 06:11:07;;;;;;;;;;;;;;;;;;5014281;28;19956;-68
2023/01/07 06:13:33;;;;;;;;;;;;;;;;;;5002966;28;20015;-68
2023/01/07 06:15:59;;;;;;;;;;;;;;;;;;5019415;28;19924;-68
2023/01/07 06:18:24;;;;;;;;;;;;;;;;;;5017605;28;20006;-69
2023/01/07 06:20:50;;;;;;;;;;;;;;;;;;5007460;28;19921;-68
2023/01/07 06:23:16;;;;;;;;;;;;;;;;;;5003624;28;19929;-69
2023/01/07 06:25:42;;;;;;;;;;;;;;;;;;5016249;28;19925;-68
2023/01/07 06:28:08;;;;;;;;;;;;;;;;;;5019391;28;20431;-68
2023/01/07 06:30:34;;;;;;;;;;;;;;;;;;5015469;28;19948;-68
2023/01/07 06:33:00;;;;;;;;;;;;;;;;;;5011460;28;19935;-69
2023/01/07 06:35:26;;;;;;;;;;;;;;;;;;5012318;28;19928;-69
2023/01/07 06:37:51;;;;;;;;;;;;;;;;;;5024268;28;19929;-69
2023/01/07 06:40:17;;;;;;;;;;;;;;;;;;5010857;28;19968;-69
2023/01/07 06:42:43;;;;;;;;;;;;;;;;;;5005348;28;19932;-69
2023/01/07 06:45:09;;;;;;;;;;;;;;;;;;5013204;28;19921;-68
2023/01/07 06:47:35;;;;;;;;;;;;;;;;;;5005840;28;19921;-71
2023/01/07 06:50:01;;;;;;;;;;;;;;;;;;5010454;28;19929;-66
2023/01/07 06:52:27;;;;;;;;;;;;;;;;;;5006420;28;19936;-68
2023/01/07 06:54:53;;;;;;;;;;;;;;;;;;5006774;28;20008;-66
2023/01/07 06:57:19;;;;;;;;;;;;;;;;;;5008939;28;20410;-68
2023/01/07 06:59:44;;;;;;;;;;;;;;;;;;5017780;28;19928;-68
2023/01/07 07:02:10;;;;;;;;;;;;;;;;;;5002703;28;19917;-68
2023/01/07 07:04:36;;;;;;;;;;;;;;;;;;5019594;28;19917;-70
2023/01/07 07:07:02;;;;;;;;;;;;;;;;;;5007418;28;19929;-69
2023/01/07 07:09:28;;;;;;;;;;;;;;;;;;5015120;28;19926;-69
2023/01/07 07:11:54;;;;;;;;;;;;;;;;;;5020049;28;19925;-69
2023/01/07 07:14:20;;;;;;;;;;;;;;;;;;5021805;28;19920;-68
2023/01/07 07:16:48;;;;;;;;;;;;;;;;;;5006846;28;19968;-70
2023/01/07 07:19:14;;;;;;;;;;;;;;;;;;5009336;28;19925;-69
2023/01/07 07:21:40;;;;;;;;;;;;;;;;;;5015542;28;19921;-70
2023/01/07 07:24:05;;;;;;;;;;;;;;;;;;5017121;28;19925;-69
2023/01/07 07:26:31;;;;;;;;;;;;;;;;;;5015578;28;19932;-69
2023/01/07 07:28:57;;;;;;;;;;;;;;;;;;5011832;28;19929;-69
2023/01/07 07:31:23;;;;;;;;;;;;;;;;;;5011208;28;20386;-68
2023/01/07 07:33:49;;;;;;;;;;;;;;;;;;5012379;28;19925;-68
2023/01/07 07:36:15;;;;;;;;;;;;;;;;;;5011260;28;20679;-69
2023/01/07 07:38:41;;;;;;;;;;;;;;;;;;5017352;28;19948;-69
2023/01/07 07:41:06;;;;;;;;;;;;;;;;;;5015594;28;19947;-69
2023/01/07 07:43:32;;;;;;;;;;;;;;;;;;5006597;28;19960;-68
2023/01/07 07:45:58;;;;;;;;;;;;;;;;;;5001266;28;20458;-69
2023/01/07 07:48:24;;;;;;;;;;;;;;;;;;5006835;28;19920;-68
2023/01/07 07:50:50;;;;;;;;;;;;;;;;;;5001435;28;19928;-69
2023/01/07 07:53:17;;;;;;;;;;;;;;;;;;5012250;28;20412;-69
2023/01/07 07:55:43;;;;;;;;;;;;;;;;;;5006061;28;20002;-69
2023/01/07 07:58:09;;;;;;;;;;;;;;;;;;4998931;28;20015;-68
2023/01/07 08:00:34;;;;;;;;;;;;;;;;;;5006009;28;20028;-68
2023/01/07 08:03:00;;;;;;;;;;;;;;;;;;4996056;28;19925;-68
2023/01/07 08:05:26;;;;;;;;;;;;;;;;;;5002586;28;21485;-68
2023/01/07 08:07:52;;;;;;;;;;;;;;;;;;4990690;28;20407;-69
2023/01/07 08:10:19;;;;;;;;;;;;;;;;;;4988024;28;19921;-67
2023/01/07 08:12:45;;;;;;;;;;;;;;;;;;4996013;28;19921;-69
2023/01/07 08:15:11;;;;;;;;;;;;;;;;;;4990700;28;20523;-68
2023/01/07 08:17:37;;;;;;;;;;;;;;;;;;4999242;28;19944;-68
2023/01/07 08:20:03;;;;;;;;;;;;;;;;;;4994215;28;19925;-68
2023/01/07 08:22:29;;;;;;;;;;;;;;;;;;4997824;28;19928;-68
2023/01/07 08:24:55;;;;;;;;;;;;;;;;;;4994149;28;19956;-67
2023/01/07 08:27:21;;;;;;;;;;;;;;;;;;4986392;28;19929;-69
2023/01/07 08:29:47;;;;;;;;;;;;;;;;;;4991888;28;19921;-67
2023/01/07 08:32:13;;;;;;;;;;;;;;;;;;4991280;28;19921;-70
2023/01/07 08:34:38;;;;;;;;;;;;;;;;;;4998143;28;19926;-69
2023/01/07 08:37:04;;;;;;;;;;;;;;;;;;4991479;28;19976;-69
2023/01/07 08:39:30;;;;;;;;;;;;;;;;;;4988575;28;20406;-68
2023/01/07 08:41:56;;;;;;;;;;;;;;;;;;4978581;28;20393;-68
2023/01/07 08:44:22;;;;;;;;;;;;;;;;;;4983651;28;20291;-68
2023/01/07 08:46:48;;;;;;;;;;;;;;;;;;4977207;28;19925;-71
2023/01/07 08:49:14;;;;;;;;;;;;;;;;;;4976946;28;19929;-69
2023/01/07 08:51:40;;;;;;;;;;;;;;;;;;4974808;28;20006;-68
2023/01/07 08:54:05;;;;;;;;;;;;;;;;;;4954136;28;19928;-67
2023/01/07 08:56:32;;;;;;;;;;;;;;;;;;4955593;28;19984;-67
2023/01/07 08:58:58;;;;;;;;;;;;;;;;;;4986419;28;19925;-67
2023/01/07 09:01:24;;;;;;;;;;;;;;;;;;4999461;28;19978;-66
2023/01/07 09:03:50;;;;;;;;;;;;;;;;;;4975412;28;20029;-67
2023/01/07 09:06:15;;;;;;;;;;;;;;;;;;4984290;28;21731;-67
2023/01/07 09:08:41;;;;;;;;;;;;;;;;;;5002005;28;19927;-68
2023/01/07 09:11:07;;;;;;;;;;;;;;;;;;5004347;28;20320;-69
2023/01/07 09:13:33;;;;;;;;;;;;;;;;;;5008991;28;19921;-67
2023/01/07 09:15:59;;;;;;;;;;;;;;;;;;4990316;28;19926;-69
2023/01/07 09:18:25;;;;;;;;;;;;;;;;;;5009173;28;19925;-67
2023/01/07 09:20:51;;;;;;;;;;;;;;;;;;5006524;28;19921;-68
2023/01/07 09:23:17;;;;;;;;;;;;;;;;;;4994293;28;20056;-68
2023/01/07 09:25:42;;;;;;;;;;;;;;;;;;5003749;28;20322;-67
2023/01/07 09:28:08;;;;;;;;;;;;;;;;;;5007215;28;20906;-66
2023/01/07 09:30:34;;;;;;;;;;;;;;;;;;4994880;28;20337;-67
2023/01/07 09:33:00;;;;;;;;;;;;;;;;;;5001018;28;19952;-67
2023/01/07 09:35:26;;;;;;;;;;;;;;;;;;5021445;28;20440;-66
2023/01/07 09:37:52;;;;;;;;;;;;;;;;;;5011515;28;19913;-66
2023/01/07 09:40:18;;;;;;;;;;;;;;;;;;5016521;28;19944;-68
2023/01/07 09:42:43;;;;;;;;;;;;;;;;;;5010860;28;20795;-69
2023/01/07 09:45:09;;;;;;;;;;;;;;;;;;5006374;28;20052;-67
2023/01/07 09:47:36;;;;;;;;;;;;;;;;;;5003246;28;20031;-68
2023/01/07 09:50:02;;;;;;;;;;;;;;;;;;5007564;28;20385;-66
2023/01/07 09:52:28;;;;;;;;;;;;;;;;;;5019809;28;20121;-69
2023/01/07 09:54:54;;;;;;;;;;;;;;;;;;5009229;28;19925;-69
2023/01/07 09:57:20;;;;;;;;;;;;;;;;;;5014256;28;20318;-69
2023/01/07 09:59:46;;;;;;;;;;;;;;;;;;5006173;28;19969;-69
2023/01/07 10:02:12;;;;;;;;;;;;;;;;;;4992814;28;20623;-67
2023/01/07 10:04:38;;;;;;;;;;;;;;;;;;5012001;28;20525;-67
2023/01/07 10:07:03;;;;;;;;;;;;;;;;;;5007849;28;19928;-69
2023/01/07 10:09:29;;;;;;;;;;;;;;;;;;5001515;28;19920;-66
2023/01/07 10:11:56;;;;;;;;;;;;;;;;;;5020275;28;19925;-67
2023/01/07 10:14:22;;;;;;;;;;;;;;;;;;5008463;28;19925;-68
2023/01/07 10:16:48;;;;;;;;;;;;;;;;;;5002713;28;19928;-66
2023/01/07 10:19:14;;;;;;;;;;;;;;;;;;5003026;28;19925;-66
2023/01/07 10:21:40;;;;;;;;;;;;;;;;;;5006340;28;20406;-66
2023/01/07 10:24:05;;;;;;;;;;;;;;;;;;5009260;28;19917;-69
2023/01/07 10:26:31;;;;;;;;;;;;;;;;;;5012206;28;20395;-68
2023/01/07 10:28:57;;;;;;;;;;;;;;;;;;5015952;28;19921;-67
2023/01/07 10:31:23;;;;;;;;;;;;;;;;;;5004932;28;19924;-67
2023/01/07 10:33:49;;;;;;;;;;;;;;;;;;4995294;28;20012;-67
2023/01/07 10:36:15;;;;;;;;;;;;;;;;;;5004790;28;19931;-67
2023/01/07 10:38:41;;;;;;;;;;;;;;;;;;5005671;28;20505;-65
2023/01/07 10:41:07;;;;;;;;;;;;;;;;;;5007397;28;19929;-65
2023/01/07 10:43:32;;;;;;;;;;;;;;;;;;5008228;28;19947;-68
2023/01/07 10:45:58;;;;;;;;;;;;;;;;;;5003790;28;20389;-65
2023/01/07 10:48:24;;;;;;;;;;;;;;;;;;5004593;28;19995;-65
2023/01/07 10:50:50;;;;;;;;;;;;;;;;;;4993282;28;20601;-64
2023/01/07 10:53:16;;;;;;;;;;;;;;;;;;5017571;28;19918;-67
2023/01/07 10:55:42;;;;;;;;;;;;;;;;;;5005330;28;20381;-67
2023/01/07 10:58:08;;;;;;;;;;;;;;;;;;4996926;28;19930;-67
2023/01/07 11:00:33;;;;;;;;;;;;;;;;;;5006745;28;19985;-70
2023/01/07 11:02:59;;;;;;;;;;;;;;;;;;5013971;28;19932;-68
2023/01/07 11:05:25;;;;;;;;;;;;;;;;;;5015941;28;19920;-68
2023/01/07 11:07:51;;;;;;;;;;;;;;;;;;5008781;28;19929;-68
2023/01/07 11:10:17;;;;;;;;;;;;;;;;;;5007969;28;20011;-67
2023/01/07 11:12:43;;;;;;;;;;;;;;;;;;5008962;28;19932;-67
2023/01/07 11:15:09;;;;;;;;;;;;;;;;;;5001573;28;20179;-67
2023/01/07 11:17:35;;;;;;;;;;;;;;;;;;5002556;28;20184;-69
2023/01/07 11:20:01;;;;;;;;;;;;;;;;;;5006586;28;19929;-68
2023/01/07 11:22:27;;;;;;;;;;;;;;;;;;5000883;28;20046;-68
2023/01/07 11:24:52;;;;;;;;;;;;;;;;;;5011153;28;19956;-66
2023/01/07 11:27:18;;;;;;;;;;;;;;;;;;4993403;28;20264;-64
2023/01/07 11:29:44;;;;;;;;;;;;;;;;;;4993064;28;20489;-67
2023/01/07 11:32:10;;;;;;;;;;;;;;;;;;5012327;28;19929;-66
2023/01/07 11:34:36;;;;;;;;;;;;;;;;;;4994589;28;19974;-64
2023/01/07 11:37:02;;;;;;;;;;;;;;;;;;4981954;28;19981;-66
2023/01/07 11:39:28;;;;;;;;;;;;;;;;;;4994863;28;19920;-67
2023/01/07 11:44:50;;;;;;;;;;;;;;;;;;4991607;28;22879;-56
2023/01/07 11:47:16;;;;;;;;;;;;;;;;;;5001490;28;19921;-56
2023/01/07 11:49:42;;;;;;;;;;;;;;;;;;5015329;28;19947;-56
2023/01/07 11:52:07;;;;;;;;;;;;;;;;;;5013928;28;20409;-56
2023/01/07 11:54:33;;;;;;;;;;;;;;;;;;5011903;28;19979;-58
2023/01/07 11:56:59;;;;;;;;;;;;;;;;;;5010006;28;19925;-57
2023/01/07 11:59:25;;;;;;;;;;;;;;;;;;4996207;28;19925;-57
2023/01/07 12:01:51;;;;;;;;;;;;;;;;;;4996107;28;19999;-57
2023/01/07 12:04:17;;;;;;;;;;;;;;;;;;5003817;28;19922;-57
2023/01/07 12:06:43;;;;;;;;;;;;;;;;;;5009707;28;19929;-57
2023/01/07 12:09:09;;;;;;;;;;;;;;;;;;5001041;28;20289;-57
2023/01/07 12:11:34;;;;;;;;;;;;;;;;;;5000426;28;19932;-57
2023/01/07 12:14:00;;;;;;;;;;;;;;;;;;5002870;28;19933;-58
2023/01/07 12:16:29;;;;;;;;;;;;;;;;;;5002090;28;20363;-57
2023/01/07 12:18:55;;;;;;;;;;;;;;;;;;5005739;28;19925;-57
2023/01/07 12:21:21;;;;;;;;;;;;;;;;;;5012219;28;19925;-57
2023/01/07 12:23:47;;;;;;;;;;;;;;;;;;5009821;28;20223;-57
2023/01/07 12:26:13;;;;;;;;;;;;;;;;;;5017769;28;19983;-57
2023/01/07 12:28:38;;;;;;;;;;;;;;;;;;5017830;28;20328;-57
2023/01/07 12:31:04;;;;;;;;;;;;;;;;;;5022752;28;19931;-57
2023/01/07 12:33:30;;;;;;;;;;;;;;;;;;5019506;28;19948;-58
2023/01/07 12:35:56;;;;;;;;;;;;;;;;;;5010089;28;19926;-57
2023/01/07 12:38:24;;;;;;;;;;;;;;;;;;5005024;28;19924;-58
2023/01/07 12:40:49;;;;;;;;;;;;;;;;;;5010276;28;20309;-58
2023/01/07 12:43:15;;;;;;;;;;;;;;;;;;5015596;28;19925;-58
2023/01/07 12:45:41;;;;;;;;;;;;;;;;;;4992339;28;20671;-57
2023/01/07 12:48:07;;;;;;;;;;;;;;;;;;4991833;28;19987;-58
2023/01/07 12:50:33;;;;;;;;;;;;;;;;;;4990176;28;19949;-55
2023/01/07 12:52:59;;;;;;;;;;;;;;;;;;4991319;28;19921;-57
2023/01/07 12:55:25;;;;;;;;;;;;;;;;;;4984104;28;20683;-57
2023/01/07 12:57:50;;;;;;;;;;;;;;;;;;4990140;28;19922;-58
2023/01/07 13:00:16;;;;;;;;;;;;;;;;;;4983273;28;19926;-58
2023/01/07 13:02:47;;;;;;;;;;;;;;;;;;4998459;28;20679;-57
2023/01/07 13:05:12;;;;;;;;;;;;;;;;;;4996199;28;20171;-57
2023/01/07 13:07:38;;;;;;;;;;;;;;;;;;4995997;28;19928;-57
2023/01/07 13:10:06;;;;;;;;;;;;;;;;;;5004033;28;20508;-57
2023/01/07 13:12:47;;;;;;;;;;;;;;;;;;5016304;28;19927;-60
2023/01/07 13:15:13;;;;;;;;;;;;;;;;;;4983642;28;19926;-57
2023/01/07 13:17:39;;;;;;;;;;;;;;;;;;4960185;28;20969;-57
2023/01/07 13:20:06;;;;;;;;;;;;;;;;;;4979183;28;19932;-57
2023/01/07 13:22:32;;;;;;;;;;;;;;;;;;4982539;28;19979;-57
2023/01/07 13:24:58;;;;;;;;;;;;;;;;;;4970494;28;20085;-57
2023/01/07 13:27:24;;;;;;;;;;;;;;;;;;4989208;28;20666;-57
2023/01/07 13:29:49;;;;;;;;;;;;;;;;;;4963382;28;20319;-57
2023/01/07 13:32:15;;;;;;;;;;;;;;;;;;4997476;28;19925;-57
2023/01/07 13:34:41;;;;;;;;;;;;;;;;;;4980145;28;21032;-57
2023/01/07 13:37:07;;;;;;;;;;;;;;;;;;5004398;28;19965;-57
2023/01/07 13:39:33;;;;;;;;;;;;;;;;;;5001513;28;20066;-57
2023/01/07 13:41:59;;;;;;;;;;;;;;;;;;4990829;28;19926;-57
2023/01/07 13:44:25;;;;;;;;;;;;;;;;;;4973894;28;19933;-57
2023/01/07 13:46:51;;;;;;;;;;;;;;;;;;4983267;28;19918;-57
2023/01/07 13:49:17;;;;;;;;;;;;;;;;;;4999704;28;20059;-57
2023/01/07 13:51:42;;;;;;;;;;;;;;;;;;4989207;28;19927;-57
2023/01/07 13:54:08;;;;;;;;;;;;;;;;;;4986357;28;19925;-56
2023/01/07 13:56:34;;;;;;;;;;;;;;;;;;4985066;28;21067;-57
2023/01/07 13:59:00;;;;;;;;;;;;;;;;;;4979902;28;19960;-58
2023/01/07 14:01:26;;;;;;;;;;;;;;;;;;4991656;28;20374;-57
2023/01/07 14:03:52;;;;;;;;;;;;;;;;;;4987851;28;19925;-57
2023/01/07 14:06:22;;;;;;;;;;;;;;;;;;4993273;28;20594;-57
2023/01/07 14:08:51;;;;;;;;;;;;;;;;;;5010058;28;21833;-57
2023/01/07 14:11:17;;;;;;;;;;;;;;;;;;4984226;28;19922;-57
2023/01/07 14:13:42;;;;;;;;;;;;;;;;;;5014846;28;19968;-57
2023/01/07 14:16:08;;;;;;;;;;;;;;;;;;5004177;28;20527;-57
2023/01/07 14:18:34;;;;;;;;;;;;;;;;;;5008834;28;19925;-57
2023/01/07 14:21:00;;;;;;;;;;;;;;;;;;4985052;28;19930;-57
2023/01/07 14:23:26;;;;;;;;;;;;;;;;;;4998328;28;19927;-58
2023/01/07 14:25:52;;;;;;;;;;;;;;;;;;5011871;28;20070;-57
2023/01/07 14:28:18;;;;;;;;;;;;;;;;;;4980945;28;19925;-62
2023/01/07 14:30:44;;;;;;;;;;;;;;;;;;4957928;28;19980;-61
2023/01/07 14:33:09;;;;;;;;;;;;;;;;;;4970179;28;20353;-61
2023/01/07 14:35:35;;;;;;;;;;;;;;;;;;5002193;28;19952;-62
2023/01/07 14:38:01;;;;;;;;;;;;;;;;;;4986814;28;19957;-61
2023/01/07 14:40:33;;;;;;;;;;;;;;;;;;5005749;28;20541;-61
2023/01/07 14:42:59;;;;;;;;;;;;;;;;;;5004783;28;19983;-62
2023/01/07 14:45:25;;;;;;;;;;;;;;;;;;4986150;28;20996;-62
2023/01/07 14:47:51;;;;;;;;;;;;;;;;;;5011939;28;19940;-62
2023/01/07 14:50:17;;;;;;;;;;;;;;;;;;4973434;28;19918;-62
2023/01/07 14:52:43;;;;;;;;;;;;;;;;;;4996951;28;20442;-61
2023/01/07 14:55:09;;;;;;;;;;;;;;;;;;5001880;28;19924;-61
2023/01/07 14:57:35;;;;;;;;;;;;;;;;;;5001039;28;19917;-61
2023/01/07 15:00:01;;;;;;;;;;;;;;;;;;4958113;28;20003;-60
2023/01/07 15:02:27;;;;;;;;;;;;;;;;;;4987894;28;19924;-61
2023/01/07 15:04:52;;;;;;;;;;;;;;;;;;5005959;28;19925;-61
2023/01/07 15:07:18;;;;;;;;;;;;;;;;;;4984876;28;19924;-61
2023/01/07 15:17:58;;;;;;;;;;;;;;;;;;5019681;28;19924;-61
2023/01/07 15:20:24;;;;;;;;;;;;;;;;;;5004130;28;20358;-60
2023/01/07 15:22:50;;;;;;;;;;;;;;;;;;4995449;28;19935;-61
2023/01/07 15:25:16;;;;;;;;;;;;;;;;;;5015356;28;19921;-60
2023/01/07 15:27:42;;;;;;;;;;;;;;;;;;5007010;28;19932;-61
2023/01/07 15:30:08;;;;;;;;;;;;;;;;;;5022608;28;19922;-60
2023/01/07 15:32:34;;;;;;;;;;;;;;;;;;4993844;28;19929;-60
2023/01/07 15:34:59;;;;;;;;;;;;;;;;;;5011547;28;19984;-61
2023/01/07 15:37:25;;;;;;;;;;;;;;;;;;5002840;28;19921;-60
2023/01/07 15:39:51;;;;;;;;;;;;;;;;;;4971089;28;19982;-60
2023/01/07 15:42:17;;;;;;;;;;;;;;;;;;5001814;28;19918;-61
2023/01/07 15:44:43;;;;;;;;;;;;;;;;;;4994768;28;19988;-61
2023/01/07 15:47:09;;;;;;;;;;;;;;;;;;4963010;28;19936;-61
2023/01/07 15:49:35;;;;;;;;;;;;;;;;;;5001874;28;19929;-60
2023/01/07 15:52:01;;;;;;;;;;;;;;;;;;5012958;28;19925;-60
2023/01/07 15:54:27;;;;;;;;;;;;;;;;;;4984411;28;19928;-60
2023/01/07 15:56:53;;;;;;;;;;;;;;;;;;5011984;28;20449;-57
2023/01/07 15:59:18;;;;;;;;;;;;;;;;;;4986045;28;20421;-57
2023/01/07 16:01:45;;;;;;;;;;;;;;;;;;4975796;28;20047;-56
2023/01/07 16:04:11;;;;;;;;;;;;;;;;;;4992553;28;19985;-57
2023/01/07 16:06:38;;;;;;;;;;;;;;;;;;4989268;28;19951;-56
2023/01/07 16:09:03;;;;;;;;;;;;;;;;;;4994221;28;19974;-57
2023/01/07 16:11:29;;;;;;;;;;;;;;;;;;4967121;28;20104;-56
2023/01/07 16:13:56;;;;;;;;;;;;;;;;;;4977354;28;19924;-56
2023/01/07 16:16:21;;;;;;;;;;;;;;;;;;4977488;28;20041;-56
2023/01/07 16:18:47;;;;;;;;;;;;;;;;;;5011737;28;20356;-57
2023/01/07 16:21:13;;;;;;;;;;;;;;;;;;4992145;28;19922;-56
2023/01/07 16:23:39;;;;;;;;;;;;;;;;;;5000238;28;19959;-56
2023/01/07 16:26:05;;;;;;;;;;;;;;;;;;4990314;28;19926;-56
2023/01/07 16:28:31;;;;;;;;;;;;;;;;;;5012919;28;19979;-56
2023/01/07 16:30:57;;;;;;;;;;;;;;;;;;5005789;28;19978;-56
2023/01/07 16:33:23;;;;;;;;;;;;;;;;;;5005155;28;19918;-56
2023/01/07 16:35:49;;;;;;;;;;;;;;;;;;5000854;28;19921;-56
2023/01/07 16:38:15;;;;;;;;;;;;;;;;;;5007469;28;19925;-57
2023/01/07 16:40:40;;;;;;;;;;;;;;;;;;4994148;28;19926;-56
2023/01/07 16:43:06;;;;;;;;;;;;;;;;;;4971566;28;19937;-57
2023/01/07 16:45:32;;;;;;;;;;;;;;;;;;5000082;28;20353;-56
2023/01/07 16:47:58;;;;;;;;;;;;;;;;;;4996750;28;19928;-56
2023/01/07 16:50:24;;;;;;;;;;;;;;;;;;4999654;28;19930;-56